BLH - Blythe

Pirep is a free, collaborative database of all public and private airports located within the United States. All pilots are welcome to contribute, edit, and improve any airport they have local knowledge about, no registration required.
Are you familiar with this airport? Help out other pilots by adding your local knowledge.
Uploaded photos will be licensed under a CC BY-SA 4.0 license. Please only upload photos you have the rights to use.
Tags
Public
Undocu­mented
METAR / TAF
Edit Tags
Food
Camping
Lodging
Car Rental
Bicycles
Swimming
Golfing
Fishing
Hot Springs
Museum
Flying Clubs
Airpark
Upcoming Events
No upcoming events. Is anything happening here soon?
*
*
*

Where exactly on/near the airport is this event taking place?

Is there a webpage with more information for this event?

Who should be contacted for more information?

What is this event all about?

Repeat every
Description
Transient Parking
Fuel Location
Landing & Tie-down Fees
Crew Car Availability
Flying Clubs
WiFi Access
Airport Statistics
Location: Blythe, CA
Elevation: 399ft
Sectional: Phoenix
Activation date: Apr 1940
Fuel: 100LL, A (prices)
Runway 08/26: 6,543ft
Runway 17/35: 5,800ft
Access: Open to the public
Current Weather — VFR
  • Weather data is strictly informational and not for flight planning purposes.
  • METAR
    2024-05-24 16:52:00 PDT
    Ceiling Wind Temperature Dewpoint Weather Visbility
    Sky clear 230° @ 17kt, gusts 23kt 96°F 30°F N/A 10SM
    Raw: KBLH 242352Z AUTO 23017G23KT 10SM CLR 36/M01 A2964 RMK AO2 PK WND 24029/2256 SLP031 T03561006 10367 20306 56020 $
  • TAF
    2024-05-24 17:00:00 PDT – 2024-05-24 21:00:00 PDT
    Ceiling Wind Weather Visbility
    Sky clear 230° @ 20kt, gusts 28kt N/A 6SM
    Clouds: Few @ 25,000ft
    Raw: KBLH 242330Z 2500/2524 23020G28KT P6SM FEW250 FM250400 20011KT P6SM SKC FM252100 22010G18KT P6SM SKC
  • TAF
    2024-05-24 21:00:00 PDT – 2024-05-25 14:00:00 PDT
    Ceiling Wind Weather Visbility
    Sky clear 200° @ 11kt N/A 6SM
    Clouds: @ ft
    Raw: KBLH 242330Z 2500/2524 23020G28KT P6SM FEW250 FM250400 20011KT P6SM SKC FM252100 22010G18KT P6SM SKC
  • TAF
    2024-05-25 14:00:00 PDT – 2024-05-25 17:00:00 PDT
    Ceiling Wind Weather Visbility
    Sky clear 220° @ 10kt, gusts 18kt N/A 6SM
    Clouds: @ ft
    Raw: KBLH 242330Z 2500/2524 23020G28KT P6SM FEW250 FM250400 20011KT P6SM SKC FM252100 22010G18KT P6SM SKC
Click/tap to add an annotation marker to the map
Airport Webcams
No webcams added yet.
Direct links to live image URLs will be displayed inline on this page. URLs to separate webpages will be linked to.
URL:
Direct links to live image URLs will be displayed inline on this page. URLs to separate webpages will be linked to.
URL:
Remarks
  • This airport has been surveyed by the national geodetic survey.
  • Acft over 12500 lbs avoid housing area 1.5 nm sw blo 2000' final apch rwy 35 be estabd 2 nm fm touchdown.
  • Dep fm ry 17 make climbing left turn soon as safety permits. use wide tfc pattern for rys 26 & 35.
  • Power plant 1 mile east of arpt producing thermal plumes; avoid low altitude direct overflight of the power plant.
  • Paja. prcht trng high and low lvls all hrs ne quad of arpt
  • For cd if una to ctc on fss freq, ctc los angeles artcc at 661-575-2079.
  • Actvt vasi rwy 17, 35 & 26; mirl rwy 17/35 & 08/26 - ctaf
Comments
Leave a comment What was your experience like at this airport?